Allegany, NY

6:37 AM EST on January 31, 2015 (GMT -0500)
KNYALLEG2 | Change Station
CLOSE
Current Station
Personal Weather Station
Location: Allegany, NY
Elevation: 1417 ft
Nearby Weather Stations

Elev 1417 ft 42.10 °N, 78.50 °W | Updated 1 minute ago

Overcast
Overcast
9.6 °F
Feels Like 10 °F
N
0.6
Wind Variable Wind from West
Gusts 0.9 mph

Today
High -- | Low -- °F
--% Chance of Precip.
Yesterday
High -- | Low -- °F
Precip. -- in
7:28 AM 5:27 PM
Waxing Gibbous, 89% visible
Pressure 30.15 in
Visibility 7.0 miles
Clouds Overcast 1800 ft
Windchill 10 °F
Dew Point -2 °F
Humidity 55%
Rainfall 0.00 in
Snow Depth Not available.
UV 0 out of 12
Pollen .10 out of 12
Air Quality Not available.
Flu Activity Not available.
METAR KOLE 311115Z AUTO 30007KT 270V330 7SM -SN OVC018 M15/M15 A3015 RMK AO2

More Conditions Fewer Conditions

Pressure 30.15 in
Visibility 7.0 miles
Clouds Overcast 1800 ft
Windchill 10 °F
Dew Point -2 °F
Humidity 55%
Rainfall 0.00 in
Snow Depth Not available.
UV 0 out of 12
Pollen .10 out of 12
Air Quality Not available.
Flu Activity Not available.
METAR KOLE 311115Z AUTO 30007KT 270V330 7SM -SN OVC018 M15/M15 A3015 RMK AO2

More Conditions Fewer Conditions

10-Day Weather Forecast

Almanac

Astronomy

Jan. 31, 2015 Rise Set
Actual Time
Civil Twilight
Nautical Twilight
Astronomical Twilight
Moon
Length of Visible Light
Length of Day
Tomorrow will be .
, % of the Moon is Illuminated

Today's Extremes

State Highs State Lows

Community

WunderPhotos

Upload Photos

1,792,032 photos uploaded!

WunderBlogs® & News

Nearby

Air Quality

  Air Quality AQ Index Pollutant
Not available.

Snow Depth

Station Depth Elevation

Earthquake Activity

City Distance Mag. Time & Date
Minimum magnitude displayed is 2.5.

Coastal Water Temperatures

Place Temperature

Nearby Weather Stations